Time;durP1;ratioP1;P1;durP2;ratioP2;P2;SDS_P1;SDS_P2;PMS_P1;PMS_P2;Temp;Humidity;BMP_temperature;BMP_pressure;BME280_temperature;BME280_humidity;BME280_pressure;Samples;Min_cycle;Max_cycle;Signal;HPM_P1;HPM_P2
2022/09/17 00:00:05;;;;;;;17.80;2.47;;;10.50;99.90;;;;;;5138443;27;20179;-75
2022/09/17 00:02:30;;;;;;;8.80;2.08;;;10.40;99.90;;;;;;5102796;27;20047;-73
2022/09/17 00:04:56;;;;;;;16.88;3.03;;;10.40;99.90;;;;;;5138017;27;20040;-75
2022/09/17 00:07:21;;;;;;;13.68;2.58;;;10.40;99.90;;;;;;5137794;27;20567;-75
2022/09/17 00:09:47;;;;;;;9.32;2.80;;;10.30;99.90;;;;;;5137864;27;20043;-74
2022/09/17 00:12:12;;;;;;;16.42;2.75;;;10.20;99.90;;;;;;5137870;27;20135;-74
2022/09/17 00:14:40;;;;;;;12.48;2.67;;;10.20;99.90;;;;;;5138166;27;20038;-75
2022/09/17 00:17:05;;;;;;;12.73;2.20;;;10.30;99.90;;;;;;5137766;27;20043;-74
2022/09/17 00:19:31;;;;;;;9.75;2.42;;;10.10;99.90;;;;;;5137940;27;20050;-74
2022/09/17 00:21:56;;;;;;;13.55;2.55;;;10.10;99.90;;;;;;5137507;27;20394;-75
2022/09/17 00:24:22;;;;;;;10.70;2.45;;;10.00;99.90;;;;;;5137537;27;20050;-74
2022/09/17 00:26:48;;;;;;;13.32;2.20;;;10.00;99.90;;;;;;5137653;27;20049;-74
2022/09/17 00:29:14;;;;;;;13.57;2.28;;;10.00;99.90;;;;;;5137542;27;20047;-74
2022/09/17 00:31:41;;;;;;;10.48;2.28;;;9.90;99.90;;;;;;5137524;27;20066;-73
2022/09/17 00:34:07;;;;;;;17.77;2.37;;;9.90;99.90;;;;;;5137393;27;20046;-74
2022/09/17 00:36:38;;;;;;;13.10;2.60;;;9.90;99.90;;;;;;5137550;27;20043;-74
2022/09/17 00:39:05;;;;;;;11.55;2.78;;;9.80;99.90;;;;;;5137004;27;20469;-75
2022/09/17 00:41:32;;;;;;;13.20;2.10;;;9.70;99.90;;;;;;5137331;27;20047;-74
2022/09/17 00:44:01;;;;;;;12.95;2.03;;;9.70;99.90;;;;;;5136715;27;20050;-74
2022/09/17 00:46:43;;;;;;;10.60;2.33;;;9.60;99.90;;;;;;5136191;27;20122;-74
2022/09/17 00:49:17;;;;;;;14.32;2.03;;;9.60;99.90;;;;;;5136949;27;20058;-75
2022/09/17 00:52:07;;;;;;;10.48;2.55;;;9.60;99.90;;;;;;5137549;27;20051;-73
2022/09/17 00:54:36;;;;;;;13.73;2.67;;;9.50;99.90;;;;;;5136727;27;20509;-74
2022/09/17 00:57:02;;;;;;;9.07;2.38;;;9.50;99.90;;;;;;5137160;27;20051;-74
2022/09/17 00:59:28;;;;;;;7.70;1.90;;;9.40;99.90;;;;;;5137077;27;20397;-73
2022/09/17 01:01:53;;;;;;;11.90;2.08;;;9.40;99.90;;;;;;5136953;27;20062;-73
2022/09/17 01:04:24;;;;;;;11.45;2.55;;;9.40;99.90;;;;;;5137198;27;20043;-74
2022/09/17 01:07:11;;;;;;;10.98;2.17;;;9.40;99.90;;;;;;5137595;27;20047;-74
2022/09/17 01:10:05;;;;;;;12.90;2.28;;;9.40;99.90;;;;;;5137062;27;20070;-75
2022/09/17 01:12:42;;;;;;;8.32;1.70;;;9.40;99.90;;;;;;5136708;27;20047;-74
2022/09/17 01:15:42;;;;;;;15.52;3.55;;;9.40;99.90;;;;;;5136651;27;20043;-74
2022/09/17 01:18:33;;;;;;;14.50;2.38;;;9.40;99.90;;;;;;5136760;27;20391;-74
2022/09/17 01:21:16;;;;;;;11.60;1.98;;;9.60;99.90;;;;;;5136140;27;20055;-73
2022/09/17 01:24:21;;;;;;;11.82;1.88;;;9.30;99.90;;;;;;5136555;27;20038;-74
2022/09/17 01:26:57;;;;;;;10.82;1.98;;;9.30;99.90;;;;;;5093942;27;20543;-74
2022/09/17 01:29:56;;;;;;;12.85;2.03;;;9.20;99.90;;;;;;5136901;27;20051;-74
2022/09/17 01:32:29;;;;;;;16.08;2.33;;;9.30;99.90;;;;;;5136270;27;20054;-73
2022/09/17 01:35:00;;;;;;;8.13;1.70;;;9.30;99.90;;;;;;5136103;27;20047;-74
2022/09/17 01:37:44;;;;;;;13.02;2.05;;;9.30;99.90;;;;;;5136143;27;20042;-74
2022/09/17 01:40:39;;;;;;;12.10;1.80;;;9.20;99.90;;;;;;5136557;27;20051;-73
2022/09/17 01:43:57;;;;;;;9.52;1.67;;;9.20;99.90;;;;;;5136728;27;20395;-75
2022/09/17 01:46:35;;;;;;;13.18;2.35;;;9.20;99.90;;;;;;5133351;27;20065;-74
2022/09/17 01:49:05;;;;;;;10.80;1.65;;;9.20;99.90;;;;;;5136001;27;20039;-74
2022/09/17 01:51:37;;;;;;;4.50;1.63;;;9.20;99.90;;;;;;5135860;27;20426;-74
2022/09/17 01:54:10;;;;;;;13.90;2.45;;;9.20;99.90;;;;;;5135720;27;20118;-73
2022/09/17 01:56:41;;;;;;;8.50;2.08;;;9.20;99.90;;;;;;5135785;27;20135;-74
2022/09/17 01:59:12;;;;;;;8.15;1.63;;;9.10;99.90;;;;;;5136179;27;20050;-74
2022/09/17 02:01:40;;;;;;;11.60;1.63;;;9.10;99.90;;;;;;5118116;27;20074;-73
2022/09/17 02:04:47;;;;;;;9.45;1.45;;;9.10;99.90;;;;;;5135649;27;20038;-73
2022/09/17 02:07:21;;;;;;;11.65;1.67;;;9.10;99.90;;;;;;5124620;27;20141;-74
2022/09/17 02:10:10;;;;;;;11.93;2.03;;;9.10;99.90;;;;;;5135353;27;20402;-73
2022/09/17 02:12:45;;;;;;;15.95;2.17;;;9.10;99.90;;;;;;5135552;27;20039;-74
2022/09/17 02:15:25;;;;;;;10.70;2.22;;;9.00;99.90;;;;;;5135392;27;20046;-73
2022/09/17 02:18:04;;;;;;;24.13;2.33;;;9.00;99.90;;;;;;5135461;27;20047;-74
2022/09/17 02:20:38;;;;;;;12.52;1.90;;;9.00;99.90;;;;;;5135692;27;20043;-75
2022/09/17 02:23:11;;;;;;;12.07;1.88;;;9.00;99.90;;;;;;5135344;27;20183;-73
2022/09/17 02:25:51;;;;;;;10.50;1.85;;;8.90;99.90;;;;;;5135216;27;20070;-74
2022/09/17 02:28:36;;;;;;;6.85;1.95;;;9.00;99.90;;;;;;5135283;27;20036;-74
2022/09/17 02:31:01;;;;;;;8.65;2.47;;;8.90;99.90;;;;;;5135515;27;20089;-74
2022/09/17 02:33:29;;;;;;;9.07;2.20;;;8.90;99.90;;;;;;5135097;27;20084;-74
2022/09/17 02:35:54;;;;;;;7.25;1.70;;;8.90;99.90;;;;;;5116812;27;20390;-73
2022/09/17 02:38:30;;;;;;;16.95;2.20;;;8.90;99.90;;;;;;5135077;27;20046;-75
2022/09/17 02:41:16;;;;;;;11.15;2.50;;;8.90;99.90;;;;;;5135053;27;20499;-73
2022/09/17 02:43:51;;;;;;;11.45;2.13;;;8.80;99.90;;;;;;5134976;27;20149;-74
2022/09/17 02:46:54;;;;;;;10.27;1.88;;;8.80;99.90;;;;;;5135083;27;20043;-73
2022/09/17 02:49:50;;;;;;;8.80;2.42;;;8.80;99.90;;;;;;5134884;27;20047;-73
2022/09/17 02:52:37;;;;;;;9.07;1.75;;;8.80;99.90;;;;;;5134964;27;20553;-73
2022/09/17 02:55:02;;;;;;;10.07;1.95;;;8.80;99.90;;;;;;5135207;27;20039;-74
2022/09/17 02:57:35;;;;;;;9.40;1.85;;;8.80;99.90;;;;;;5134816;27;20042;-74
2022/09/17 03:00:16;;;;;;;14.13;2.08;;;8.80;99.90;;;;;;5134875;27;20051;-73
2022/09/17 03:02:46;;;;;;;13.07;1.70;;;8.80;99.90;;;;;;5135041;27;20035;-73
2022/09/17 03:05:13;;;;;;;14.82;1.65;;;8.80;99.90;;;;;;5134625;27;20092;-74
2022/09/17 03:07:39;;;;;;;16.48;2.22;;;8.70;99.90;;;;;;5134772;28;20082;-74
2022/09/17 03:10:06;;;;;;;7.90;2.00;;;8.80;99.90;;;;;;5115778;28;20082;-74
2022/09/17 03:12:31;;;;;;;9.07;1.88;;;8.80;99.90;;;;;;5134582;28;20039;-73
2022/09/17 03:14:57;;;;;;;11.82;1.90;;;8.80;99.90;;;;;;5134822;28;20047;-73
2022/09/17 03:17:23;;;;;;;6.38;1.60;;;8.80;99.90;;;;;;5134737;28;20043;-73
2022/09/17 03:19:48;;;;;;;14.90;1.92;;;9.20;99.90;;;;;;5134599;28;20043;-73
2022/09/17 03:22:14;;;;;;;11.85;1.88;;;9.00;99.90;;;;;;5134568;28;20043;-73
2022/09/17 03:24:39;;;;;;;9.32;1.90;;;9.00;99.90;;;;;;5134576;28;20046;-73
2022/09/17 03:27:05;;;;;;;13.45;2.25;;;9.10;99.90;;;;;;5134514;28;20043;-73
2022/09/17 03:29:31;;;;;;;6.28;1.65;;;9.10;99.90;;;;;;5134547;28;20514;-73
2022/09/17 03:31:56;;;;;;;5.45;1.77;;;9.10;99.90;;;;;;5134444;28;20039;-73
2022/09/17 03:34:22;;;;;;;10.90;2.00;;;9.10;99.90;;;;;;5134368;28;20050;-73
2022/09/17 03:36:48;;;;;;;8.75;2.08;;;9.10;99.90;;;;;;5134354;28;20520;-73
2022/09/17 03:39:13;;;;;;;6.60;1.65;;;9.20;99.90;;;;;;5134422;28;20047;-74
2022/09/17 03:41:39;;;;;;;10.88;2.22;;;9.20;99.90;;;;;;5134387;28;20035;-74
2022/09/17 03:44:05;;;;;;;13.65;2.78;;;9.20;99.90;;;;;;5134368;27;20086;-73
2022/09/17 03:46:31;;;;;;;6.97;1.63;;;9.20;99.90;;;;;;5134389;28;20050;-73
2022/09/17 03:48:56;;;;;;;9.98;1.95;;;9.10;99.90;;;;;;5134293;28;20039;-74
2022/09/17 03:51:22;;;;;;;11.07;1.80;;;9.10;99.90;;;;;;5134218;28;20047;-74
2022/09/17 03:53:48;;;;;;;6.28;1.85;;;9.10;99.90;;;;;;5134201;28;20036;-74
2022/09/17 03:56:13;;;;;;;7.32;2.28;;;9.10;99.90;;;;;;5116359;28;20554;-73
2022/09/17 03:58:39;;;;;;;10.35;1.50;;;9.00;99.90;;;;;;5134632;28;20390;-74
2022/09/17 04:01:05;;;;;;;10.18;2.22;;;9.00;99.90;;;;;;5134416;28;20062;-73
2022/09/17 04:03:31;;;;;;;13.68;2.38;;;9.10;99.90;;;;;;5134209;28;20107;-73
2022/09/17 04:05:56;;;;;;;4.73;1.63;;;9.00;99.90;;;;;;5134236;28;20519;-74
2022/09/17 04:08:22;;;;;;;11.15;1.80;;;9.00;99.90;;;;;;5134344;28;20077;-73
2022/09/17 04:10:48;;;;;;;6.82;2.15;;;9.00;99.90;;;;;;5134179;28;20396;-72
2022/09/17 04:13:15;;;;;;;7.97;1.50;;;9.00;99.90;;;;;;5134039;28;20497;-73
2022/09/17 04:15:41;;;;;;;12.00;1.40;;;9.00;99.90;;;;;;5134085;28;20100;-74
2022/09/17 04:18:07;;;;;;;9.00;1.33;;;9.00;99.90;;;;;;5134134;28;20043;-74
2022/09/17 04:20:33;;;;;;;12.27;1.58;;;9.00;99.90;;;;;;5133978;27;20057;-74
2022/09/17 04:22:59;;;;;;;8.00;1.50;;;9.00;99.90;;;;;;5137646;27;20122;-74
2022/09/17 04:25:24;;;;;;;5.82;1.63;;;9.10;99.90;;;;;;5137789;27;20035;-74
2022/09/17 04:27:50;;;;;;;6.95;1.30;;;9.20;99.90;;;;;;5137570;27;20045;-73
2022/09/17 04:30:16;;;;;;;6.32;1.88;;;9.20;99.90;;;;;;5137606;27;20083;-73
2022/09/17 04:32:43;;;;;;;5.38;1.48;;;9.20;99.90;;;;;;5137498;27;20042;-73
2022/09/17 04:35:09;;;;;;;12.10;1.67;;;9.30;99.90;;;;;;5137321;27;20035;-74
2022/09/17 04:37:35;;;;;;;8.98;1.77;;;9.20;99.90;;;;;;5137432;27;20043;-73
2022/09/17 04:40:01;;;;;;;9.10;1.92;;;9.20;99.90;;;;;;5137398;27;20040;-74
2022/09/17 04:42:26;;;;;;;6.57;1.67;;;9.20;99.90;;;;;;5137169;27;20066;-73
2022/09/17 04:44:52;;;;;;;8.23;1.58;;;9.20;99.90;;;;;;5119171;27;20297;-72
2022/09/17 04:47:17;;;;;;;8.65;1.25;;;9.20;99.90;;;;;;5137221;27;20367;-74
2022/09/17 04:49:43;;;;;;;10.38;1.83;;;9.40;99.90;;;;;;5137187;27;20057;-73
2022/09/17 04:52:09;;;;;;;8.80;1.70;;;9.10;99.90;;;;;;5137670;27;20051;-73
2022/09/17 04:54:34;;;;;;;5.30;1.67;;;9.20;99.90;;;;;;5137433;27;20035;-73
2022/09/17 04:57:00;;;;;;;5.97;1.65;;;9.00;99.90;;;;;;5137061;27;20047;-73
2022/09/17 04:59:26;;;;;;;6.20;1.10;;;9.00;99.90;;;;;;5137013;27;20041;-73
2022/09/17 05:01:51;;;;;;;6.82;1.70;;;8.90;99.90;;;;;;5136981;27;20478;-73
2022/09/17 05:04:17;;;;;;;10.00;1.75;;;8.90;99.90;;;;;;5136837;27;20039;-74
2022/09/17 05:06:43;;;;;;;7.65;1.60;;;8.90;99.90;;;;;;5136497;27;20038;-74
2022/09/17 05:09:08;;;;;;;6.38;1.58;;;8.80;99.90;;;;;;5136774;27;20042;-74
2022/09/17 05:11:34;;;;;;;4.00;1.27;;;8.80;99.90;;;;;;5136743;27;20039;-74
2022/09/17 05:13:59;;;;;;;11.65;2.05;;;8.80;99.90;;;;;;5136673;27;20031;-73
2022/09/17 05:16:25;;;;;;;5.53;1.33;;;8.80;99.90;;;;;;5136593;27;20043;-73
2022/09/17 05:18:51;;;;;;;8.75;1.45;;;8.80;99.90;;;;;;5136682;27;20121;-73
2022/09/17 05:21:18;;;;;;;4.72;1.30;;;8.80;99.90;;;;;;5136503;27;20035;-74
2022/09/17 05:23:43;;;;;;;5.88;1.50;;;8.80;99.90;;;;;;5136458;27;20483;-72
2022/09/17 05:26:09;;;;;;;8.27;1.58;;;8.90;99.90;;;;;;5136503;27;20167;-74
2022/09/17 05:28:35;;;;;;;5.22;1.73;;;8.90;99.90;;;;;;5136726;27;20483;-73
2022/09/17 05:31:01;;;;;;;8.50;1.23;;;8.90;99.90;;;;;;5136390;27;20046;-74
2022/09/17 05:33:27;;;;;;;8.10;1.70;;;9.00;99.90;;;;;;5135712;27;20045;-73
2022/09/17 05:35:53;;;;;;;8.25;1.33;;;8.90;99.90;;;;;;5136189;27;20047;-73
2022/09/17 05:38:19;;;;;;;7.75;1.40;;;8.90;99.90;;;;;;5136257;27;20050;-73
2022/09/17 05:40:45;;;;;;;7.43;1.42;;;9.00;99.90;;;;;;5136101;27;20039;-74
2022/09/17 05:43:11;;;;;;;6.63;1.38;;;8.90;99.90;;;;;;5135951;27;20062;-72
2022/09/17 05:45:37;;;;;;;5.68;1.98;;;8.90;99.90;;;;;;5136332;27;20047;-73
2022/09/17 05:48:05;;;;;;;6.82;1.50;;;8.90;99.90;;;;;;5135962;27;20397;-73
2022/09/17 05:50:32;;;;;;;9.15;1.42;;;8.90;99.90;;;;;;5135948;27;20099;-73
2022/09/17 05:53:04;;;;;;;8.43;2.13;;;8.90;99.90;;;;;;5135935;27;20057;-73
2022/09/17 05:55:30;;;;;;;7.22;1.35;;;9.00;99.90;;;;;;5135917;27;20466;-73
2022/09/17 05:57:56;;;;;;;10.75;1.77;;;9.00;99.90;;;;;;5135894;27;20039;-73
2022/09/17 06:00:21;;;;;;;8.30;1.50;;;9.00;99.90;;;;;;5135917;27;20054;-73
2022/09/17 06:02:54;;;;;;;7.05;1.45;;;9.00;99.90;;;;;;5135847;27;20095;-73
2022/09/17 06:05:20;;;;;;;8.73;1.65;;;9.10;99.90;;;;;;5136219;27;20043;-73
2022/09/17 06:07:46;;;;;;;6.75;1.27;;;9.10;99.90;;;;;;5135968;27;20042;-73
2022/09/17 06:10:11;;;;;;;11.38;2.05;;;9.20;99.90;;;;;;5117555;27;20043;-74
2022/09/17 06:12:37;;;;;;;7.47;1.58;;;9.30;99.90;;;;;;5135557;27;20085;-73
2022/09/17 06:15:03;;;;;;;6.80;1.73;;;9.40;99.90;;;;;;5135403;27;20115;-73
2022/09/17 06:17:33;;;;;;;4.63;1.00;;;9.40;99.90;;;;;;5116884;27;20051;-74
2022/09/17 06:19:59;;;;;;;7.63;1.35;;;9.50;99.90;;;;;;5135852;27;20050;-73
2022/09/17 06:22:24;;;;;;;11.20;2.17;;;9.60;99.90;;;;;;5135405;27;20043;-73
2022/09/17 06:24:50;;;;;;;5.65;1.58;;;9.70;99.90;;;;;;5135305;27;20047;-74
2022/09/17 06:27:15;;;;;;;6.80;1.65;;;9.80;99.90;;;;;;5135272;27;20035;-74
2022/09/17 06:29:41;;;;;;;8.73;1.50;;;9.80;99.90;;;;;;5135435;27;20128;-73
2022/09/17 06:32:11;;;;;;;8.55;1.55;;;9.90;99.90;;;;;;5135256;27;20031;-73
2022/09/17 06:34:38;;;;;;;11.15;1.33;;;9.90;99.90;;;;;;5135689;27;20035;-74
2022/09/17 06:37:04;;;;;;;7.13;1.17;;;9.90;99.90;;;;;;5135115;27;20039;-72
2022/09/17 06:39:29;;;;;;;9.85;1.73;;;9.90;99.90;;;;;;5135139;27;20045;-73
2022/09/17 06:41:55;;;;;;;8.50;1.80;;;9.90;99.90;;;;;;5135116;27;20094;-73
2022/09/17 06:44:20;;;;;;;8.90;1.73;;;9.90;99.90;;;;;;5113687;28;20486;-73
2022/09/17 06:46:48;;;;;;;9.55;1.83;;;9.80;99.90;;;;;;5114482;28;20043;-74
2022/09/17 06:49:16;;;;;;;10.90;1.30;;;9.80;99.90;;;;;;5114243;28;20052;-74
2022/09/17 06:51:42;;;;;;;8.98;1.38;;;9.80;99.90;;;;;;5114365;28;20054;-73
2022/09/17 06:54:08;;;;;;;6.20;1.40;;;9.90;99.90;;;;;;5114294;28;20039;-74
2022/09/17 06:56:33;;;;;;;8.73;1.30;;;9.90;99.90;;;;;;5114231;28;20050;-73
2022/09/17 06:59:00;;;;;;;7.85;1.55;;;9.90;99.90;;;;;;5114387;28;20395;-74
2022/09/17 07:01:25;;;;;;;7.63;1.40;;;10.00;99.90;;;;;;5114177;28;20039;-74
2022/09/17 07:03:51;;;;;;;12.95;2.00;;;10.20;99.90;;;;;;5113911;28;20031;-73
2022/09/17 07:06:17;;;;;;;8.38;2.35;;;10.00;99.90;;;;;;5113965;28;20104;-74
2022/09/17 07:08:42;;;;;;;9.18;2.00;;;10.00;99.90;;;;;;5112983;28;20101;-73
2022/09/17 07:11:08;;;;;;;4.60;1.48;;;10.00;99.90;;;;;;5114351;28;20047;-73
2022/09/17 07:13:34;;;;;;;4.20;1.30;;;9.90;99.90;;;;;;5114058;28;20452;-74
2022/09/17 07:16:01;;;;;;;9.48;1.83;;;10.00;99.90;;;;;;5114085;28;20097;-74
2022/09/17 07:18:27;;;;;;;8.52;1.25;;;10.00;99.90;;;;;;5113957;28;20040;-74
2022/09/17 07:20:55;;;;;;;8.13;1.42;;;10.00;99.90;;;;;;5113892;28;20100;-74
2022/09/17 07:23:25;;;;;;;8.00;1.42;;;10.00;99.90;;;;;;5114021;28;20054;-73
2022/09/17 07:25:53;;;;;;;6.60;1.75;;;10.10;99.90;;;;;;5114105;28;20047;-74
2022/09/17 07:28:18;;;;;;;6.60;1.88;;;10.20;99.90;;;;;;5113993;28;20433;-73
2022/09/17 07:30:44;;;;;;;6.88;1.58;;;10.40;99.90;;;;;;5113969;28;20043;-73
2022/09/17 07:33:09;;;;;;;11.10;2.35;;;10.60;99.90;;;;;;5113844;28;20499;-74
2022/09/17 07:35:35;;;;;;;5.00;1.60;;;10.80;99.90;;;;;;5112995;28;20403;-75
2022/09/17 07:38:00;;;;;;;7.82;1.40;;;10.90;99.90;;;;;;5113927;28;20044;-74
2022/09/17 07:40:26;;;;;;;5.60;2.42;;;10.90;99.90;;;;;;5113882;28;20047;-75
2022/09/17 07:42:53;;;;;;;8.07;3.13;;;10.90;99.90;;;;;;5121542;28;20062;-73
2022/09/17 07:45:18;;;;;;;9.90;3.08;;;10.80;99.90;;;;;;5134548;28;20046;-73
2022/09/17 07:47:44;;;;;;;9.73;2.47;;;10.80;99.90;;;;;;5134067;28;20494;-73
2022/09/17 07:50:10;;;;;;;10.13;1.92;;;10.80;99.90;;;;;;5134543;28;20043;-74
2022/09/17 07:52:35;;;;;;;4.93;1.88;;;10.90;99.90;;;;;;5134303;28;20050;-73
2022/09/17 07:55:01;;;;;;;4.68;1.58;;;11.00;99.90;;;;;;5134684;27;20039;-73
2022/09/17 07:57:26;;;;;;;8.70;1.60;;;11.00;99.90;;;;;;5138503;27;20043;-73
2022/09/17 07:59:52;;;;;;;5.57;1.52;;;11.20;99.90;;;;;;5138234;27;20101;-73
2022/09/17 08:02:18;;;;;;;7.03;1.48;;;11.30;99.90;;;;;;5138066;27;20387;-72
2022/09/17 08:04:43;;;;;;;9.30;2.63;;;11.30;99.90;;;;;;5138129;27;20053;-74
2022/09/17 08:07:12;;;;;;;4.68;1.40;;;11.30;99.90;;;;;;5137749;27;20122;-73
2022/09/17 08:09:38;;;;;;;6.47;1.58;;;11.40;99.90;;;;;;5138003;27;20078;-74
2022/09/17 08:12:04;;;;;;;8.02;1.20;;;11.50;99.90;;;;;;5137929;27;20094;-73
2022/09/17 08:14:29;;;;;;;7.75;1.45;;;11.50;99.90;;;;;;5137883;27;20078;-73
2022/09/17 08:16:55;;;;;;;4.35;1.33;;;11.60;99.90;;;;;;5137768;27;20043;-74
2022/09/17 08:19:21;;;;;;;8.80;1.55;;;11.80;99.90;;;;;;5137818;27;20100;-72
2022/09/17 08:21:46;;;;;;;8.75;1.95;;;11.80;99.90;;;;;;5138123;27;20047;-74
2022/09/17 08:24:12;;;;;;;4.05;1.35;;;12.00;99.90;;;;;;5137641;27;20058;-74
2022/09/17 08:26:39;;;;;;;5.57;1.27;;;12.10;99.90;;;;;;5137683;27;20514;-73
2022/09/17 08:29:06;;;;;;;;;;;12.30;99.90;;;;;;5138033;27;20035;-73
2022/09/17 08:31:32;;;;;;;5.47;1.10;;;12.50;99.90;;;;;;5137507;27;20411;-74
2022/09/17 08:33:58;;;;;;;4.87;1.17;;;12.50;99.90;;;;;;5137422;27;20066;-73
2022/09/17 08:36:25;;;;;;;3.67;1.30;;;12.50;99.90;;;;;;5137864;27;20039;-74
2022/09/17 08:38:54;;;;;;;3.88;1.25;;;12.80;99.90;;;;;;5137442;27;20047;-73
2022/09/17 08:41:47;;;;;;;6.82;1.13;;;12.50;99.90;;;;;;5137602;27;20125;-73
2022/09/17 08:44:38;;;;;;;6.82;1.33;;;12.70;99.90;;;;;;5137827;27;20138;-73
2022/09/17 08:47:15;;;;;;;5.30;1.33;;;12.90;99.90;;;;;;5137297;27;20047;-74
2022/09/17 08:49:52;;;;;;;4.35;1.20;;;13.00;99.90;;;;;;5137260;27;20043;-73
2022/09/17 08:52:57;;;;;;;4.40;1.33;;;13.10;99.90;;;;;;5137125;27;20047;-73
2022/09/17 08:55:41;;;;;;;3.42;0.95;;;13.20;99.90;;;;;;5137341;27;20047;-74
2022/09/17 08:58:20;;;;;;;7.43;1.30;;;13.00;99.90;;;;;;5136995;27;20129;-72
2022/09/17 09:00:57;;;;;;;4.97;1.35;;;12.80;99.90;;;;;;5136970;27;20173;-74
2022/09/17 09:04:01;;;;;;;7.18;1.05;;;12.70;99.90;;;;;;5137381;27;20070;-73
2022/09/17 09:06:32;;;;;;;3.55;1.33;;;12.40;99.90;;;;;;5136627;27;20050;-73
2022/09/17 09:09:05;;;;;;;7.03;1.15;;;12.30;99.90;;;;;;5136297;27;20600;-73
2022/09/17 09:11:32;;;;;;;2.50;0.93;;;12.30;99.90;;;;;;5137088;27;20047;-73
2022/09/17 09:14:20;;;;;;;4.88;1.38;;;12.10;99.90;;;;;;5136685;27;20126;-73
2022/09/17 09:16:47;;;;;;;4.15;1.02;;;12.20;99.90;;;;;;5110361;27;20047;-73
2022/09/17 09:19:29;;;;;;;6.20;0.93;;;12.30;99.90;;;;;;5136639;27;20054;-74
2022/09/17 09:21:54;;;;;;;3.58;1.08;;;12.30;99.90;;;;;;5136556;27;20043;-74
2022/09/17 09:24:25;;;;;;;2.70;0.90;;;12.40;99.90;;;;;;5136570;27;20102;-74
2022/09/17 09:27:13;;;;;;;8.02;0.90;;;12.70;99.90;;;;;;5136795;27;20051;-74
2022/09/17 09:29:48;;;;;;;;;;;12.70;99.90;;;;;;5136891;27;20047;-74
2022/09/17 09:32:40;;;;;;;8.32;1.25;;;12.80;99.90;;;;;;5136244;27;19923;-74
2022/09/17 09:35:17;;;;;;;5.47;1.05;;;13.00;99.90;;;;;;5124730;27;20047;-73
2022/09/17 09:37:51;;;;;;;2.97;1.23;;;13.20;99.90;;;;;;5136372;27;20043;-74
2022/09/17 09:40:44;;;;;;;4.40;1.15;;;13.40;99.90;;;;;;5136238;27;20043;-74
2022/09/17 09:43:33;;;;;;;5.22;1.33;;;13.60;99.90;;;;;;5135902;27;20093;-74
2022/09/17 09:46:16;;;;;;;3.78;1.05;;;13.60;99.90;;;;;;5136218;27;20055;-73
2022/09/17 09:48:45;;;;;;;5.55;1.23;;;13.50;99.90;;;;;;5136118;27;20039;-73
2022/09/17 09:51:10;;;;;;;4.35;1.02;;;13.50;99.90;;;;;;5135960;27;20047;-76
2022/09/17 09:54:07;;;;;;;6.53;1.33;;;13.50;99.90;;;;;;5135863;27;20513;-73
2022/09/17 09:56:56;;;;;;;4.85;1.73;;;13.50;99.90;;;;;;5135881;27;20486;-73
2022/09/17 09:59:22;;;;;;;4.18;1.08;;;13.60;99.90;;;;;;5135784;27;20055;-73
2022/09/17 10:01:47;;;;;;;3.25;1.17;;;13.60;99.90;;;;;;5135878;27;20134;-74
2022/09/17 10:04:22;;;;;;;3.67;1.15;;;13.60;99.90;;;;;;5135748;27;20043;-74
2022/09/17 10:06:51;;;;;;;4.10;1.45;;;13.60;99.90;;;;;;5136265;27;20054;-73
2022/09/17 10:09:20;;;;;;;5.45;1.10;;;13.50;99.90;;;;;;5135651;27;20079;-74
2022/09/17 10:12:08;;;;;;;4.00;1.10;;;13.30;99.90;;;;;;5135460;27;20035;-74
2022/09/17 10:14:36;;;;;;;2.75;1.00;;;13.50;99.90;;;;;;5135898;27;20104;-73
2022/09/17 10:17:24;;;;;;;4.30;1.42;;;13.50;99.90;;;;;;5135461;27;20135;-74
2022/09/17 10:20:09;;;;;;;6.25;1.30;;;13.70;99.90;;;;;;5135543;27;20049;-75
2022/09/17 10:22:38;;;;;;;2.83;1.00;;;13.80;99.90;;;;;;5135649;27;20394;-73
2022/09/17 10:25:23;;;;;;;4.85;1.20;;;13.70;99.90;;;;;;5135317;27;20043;-75
2022/09/17 10:27:49;;;;;;;6.60;1.40;;;13.60;99.90;;;;;;5135350;27;20099;-73
2022/09/17 10:30:17;;;;;;;6.43;1.83;;;13.40;99.90;;;;;;5135371;27;20039;-73
2022/09/17 10:32:43;;;;;;;6.00;1.30;;;13.20;99.90;;;;;;5135089;27;20051;-74
2022/09/17 10:35:15;;;;;;;5.97;1.13;;;13.00;99.90;;;;;;5116778;27;20036;-73
2022/09/17 10:37:48;;;;;;;4.78;1.02;;;12.80;99.90;;;;;;5135474;27;20066;-72
2022/09/17 10:40:20;;;;;;;4.03;1.20;;;12.60;99.90;;;;;;5135102;27;20047;-72
2022/09/17 10:42:47;;;;;;;4.90;1.10;;;12.60;99.90;;;;;;5134824;27;20410;-73
2022/09/17 10:45:30;;;;;;;3.67;0.85;;;12.80;99.90;;;;;;5135041;27;20043;-74
2022/09/17 10:47:58;;;;;;;5.45;0.95;;;12.80;99.90;;;;;;5117080;27;20046;-73
2022/09/17 10:50:29;;;;;;;4.18;1.10;;;13.00;99.90;;;;;;5135224;27;20097;-74
2022/09/17 10:53:00;;;;;;;5.07;1.05;;;13.20;99.90;;;;;;5135082;27;20054;-74
2022/09/17 10:55:48;;;;;;;5.75;1.63;;;13.30;99.90;;;;;;5134872;27;20046;-74
2022/09/17 10:58:25;;;;;;;5.43;0.90;;;13.50;99.90;;;;;;5134831;27;20559;-74
2022/09/17 11:01:03;;;;;;;4.88;1.02;;;13.60;99.90;;;;;;5134760;27;20043;-73
2022/09/17 11:03:49;;;;;;;2.92;0.98;;;13.70;99.90;;;;;;5134856;27;20043;-73
2022/09/17 11:06:31;;;;;;;4.00;1.48;;;13.90;99.90;;;;;;5134457;27;20046;-73
2022/09/17 11:09:18;;;;;;;6.50;1.27;;;14.10;99.90;;;;;;5135284;27;20093;-74
2022/09/17 11:11:50;;;;;;;5.78;1.98;;;14.20;99.90;;;;;;5134754;28;20179;-73
2022/09/17 11:14:26;;;;;;;3.55;1.08;;;14.40;99.90;;;;;;5134841;28;20440;-73
2022/09/17 11:17:16;;;;;;;4.07;1.03;;;14.60;99.90;;;;;;5136323;28;20039;-74
2022/09/17 11:19:57;;;;;;;5.43;1.20;;;14.60;99.90;;;;;;5135347;28;20070;-74
2022/09/17 11:22:46;;;;;;;6.32;1.50;;;14.50;99.90;;;;;;5134869;28;20050;-73
2022/09/17 11:25:26;;;;;;;6.45;1.55;;;14.30;99.90;;;;;;5134641;28;20043;-73
2022/09/17 11:27:55;;;;;;;3.75;1.20;;;14.00;99.90;;;;;;5134991;28;20051;-74
2022/09/17 11:30:22;;;;;;;4.72;1.52;;;13.70;99.90;;;;;;5135315;27;20043;-73
2022/09/17 11:33:04;;;;;;;6.07;1.48;;;13.60;99.90;;;;;;5138782;27;20047;-74
2022/09/17 11:35:45;;;;;;;4.57;1.33;;;13.40;99.90;;;;;;5138806;27;20035;-73
2022/09/17 11:38:26;;;;;;;4.68;1.48;;;13.10;99.90;;;;;;5121127;27;20079;-74
2022/09/17 11:41:06;;;;;;;6.60;1.33;;;12.70;99.90;;;;;;5138896;27;20038;-73
2022/09/17 11:43:38;;;;;;;5.32;1.42;;;12.40;99.90;;;;;;5138463;27;20111;-73
2022/09/17 11:46:13;;;;;;;5.43;1.40;;;12.10;99.90;;;;;;5138381;27;20548;-73
2022/09/17 11:49:15;;;;;;;4.80;1.17;;;11.90;99.90;;;;;;5138852;27;20039;-73
2022/09/17 11:51:55;;;;;;;4.32;1.27;;;11.80;99.90;;;;;;5138244;27;20483;-73
2022/09/17 11:54:29;;;;;;;2.70;1.05;;;11.80;99.90;;;;;;5138239;27;20472;-73
2022/09/17 11:57:16;;;;;;;3.42;1.27;;;11.90;99.90;;;;;;5138599;27;20054;-73
2022/09/17 12:00:08;;;;;;;4.95;1.15;;;12.00;99.90;;;;;;5138186;27;20094;-73
2022/09/17 12:02:59;;;;;;;5.10;1.15;;;12.20;99.90;;;;;;5133860;27;20107;-73
2022/09/17 12:05:30;;;;;;;3.08;0.95;;;12.60;99.90;;;;;;5138496;27;20050;-73
2022/09/17 12:08:21;;;;;;;4.88;1.13;;;12.80;99.90;;;;;;5138194;27;20510;-73
2022/09/17 12:11:11;;;;;;;5.97;1.60;;;12.90;99.90;;;;;;5138195;27;20431;-73
2022/09/17 12:13:50;;;;;;;6.40;1.27;;;13.20;99.90;;;;;;5119820;27;20039;-73
2022/09/17 12:16:25;;;;;;;6.03;1.45;;;13.20;99.90;;;;;;5137897;27;20040;-74
2022/09/17 12:19:10;;;;;;;7.60;1.58;;;13.30;99.90;;;;;;5119577;27;20043;-75
2022/09/17 12:21:50;;;;;;;8.68;1.92;;;13.30;99.90;;;;;;5137735;27;20039;-74
2022/09/17 12:24:25;;;;;;;5.68;1.35;;;13.30;99.90;;;;;;5137833;27;20050;-72
2022/09/17 12:26:50;;;;;;;7.72;1.83;;;13.30;99.90;;;;;;5137971;27;20079;-74
2022/09/17 12:29:48;;;;;;;5.68;1.33;;;13.30;99.90;;;;;;5137312;27;20483;-72
2022/09/17 12:32:25;;;;;;;5.90;1.37;;;13.40;99.90;;;;;;5137651;27;20050;-74
2022/09/17 12:35:11;;;;;;;7.50;1.60;;;13.50;99.90;;;;;;5137874;27;20382;-73
2022/09/17 12:37:45;;;;;;;3.70;1.33;;;13.60;99.90;;;;;;5137468;27;20387;-72
2022/09/17 12:40:28;;;;;;;2.85;1.10;;;13.80;99.90;;;;;;5137301;27;20043;-72
2022/09/17 12:43:18;;;;;;;4.60;1.00;;;13.90;99.90;;;;;;5135920;27;20134;-73
2022/09/17 12:46:03;;;;;;;3.95;1.10;;;14.20;99.90;;;;;;5137292;27;20058;-72
2022/09/17 12:48:47;;;;;;;5.68;1.58;;;14.00;99.90;;;;;;5118859;27;20043;-72
2022/09/17 12:51:50;;;;;;;5.65;1.25;;;13.90;99.90;;;;;;5137224;27;20503;-74
2022/09/17 12:54:35;;;;;;;8.60;1.80;;;13.90;99.90;;;;;;5137007;27;20039;-72
2022/09/17 12:57:13;;;;;;;4.97;1.20;;;13.90;99.90;;;;;;5136604;27;20051;-72
2022/09/17 12:59:57;;;;;;;6.65;1.73;;;14.00;99.90;;;;;;5137450;27;20043;-72
2022/09/17 13:02:39;;;;;;;6.40;1.70;;;14.10;99.90;;;;;;5137266;27;20133;-72
2022/09/17 13:05:29;;;;;;;4.95;1.52;;;14.30;99.90;;;;;;5136875;27;20479;-73
2022/09/17 13:08:33;;;;;;;6.68;1.65;;;14.40;99.90;;;;;;5137370;27;20386;-73
2022/09/17 13:11:32;;;;;;;7.45;2.03;;;14.60;99.90;;;;;;5136410;27;20517;-73
2022/09/17 13:14:02;;;;;;;6.45;1.95;;;14.60;99.90;;;;;;5136682;27;20534;-73
2022/09/17 13:16:36;;;;;;;8.25;2.10;;;14.60;99.90;;;;;;5136741;27;20123;-75
2022/09/17 13:19:05;;;;;;;7.45;1.92;;;14.50;99.90;;;;;;5136989;27;20047;-72